sensor_id;sensor_type;location;lat;lon;timestamp;P1;durP1;ratioP1;P2;durP2;ratioP2
47912;SDS011;33676;51.006;17.180;2023-02-22T00:02:05;13.30;;;8.80;;
47912;SDS011;33676;51.006;17.180;2023-02-22T00:04:41;16.20;;;8.70;;
47912;SDS011;33676;51.006;17.180;2023-02-22T00:07:09;18.90;;;9.80;;
47912;SDS011;33676;51.006;17.180;2023-02-22T00:09:38;15.00;;;9.20;;
47912;SDS011;33676;51.006;17.180;2023-02-22T00:12:06;16.80;;;10.90;;
47912;SDS011;33676;51.006;17.180;2023-02-22T00:14:37;16.70;;;9.10;;
47912;SDS011;33676;51.006;17.180;2023-02-22T00:17:07;10.70;;;7.90;;
47912;SDS011;33676;51.006;17.180;2023-02-22T00:19:36;14.10;;;7.70;;
47912;SDS011;33676;51.006;17.180;2023-02-22T00:22:05;16.70;;;9.20;;
47912;SDS011;33676;51.006;17.180;2023-02-22T00:24:33;16.60;;;9.00;;
47912;SDS011;33676;51.006;17.180;2023-02-22T00:27:03;24.50;;;10.30;;
47912;SDS011;33676;51.006;17.180;2023-02-22T00:29:31;14.20;;;10.10;;
47912;SDS011;33676;51.006;17.180;2023-02-22T00:32:01;14.50;;;10.50;;
47912;SDS011;33676;51.006;17.180;2023-02-22T00:34:30;24.70;;;11.30;;
47912;SDS011;33676;51.006;17.180;2023-02-22T00:36:58;15.80;;;12.20;;
47912;SDS011;33676;51.006;17.180;2023-02-22T00:39:30;26.10;;;13.70;;
47912;SDS011;33676;51.006;17.180;2023-02-22T00:41:58;18.40;;;11.70;;
47912;SDS011;33676;51.006;17.180;2023-02-22T00:44:27;15.20;;;10.80;;
47912;SDS011;33676;51.006;17.180;2023-02-22T00:46:55;19.50;;;10.30;;
47912;SDS011;33676;51.006;17.180;2023-02-22T00:49:24;16.20;;;10.30;;
47912;SDS011;33676;51.006;17.180;2023-02-22T00:51:53;19.90;;;12.10;;
47912;SDS011;33676;51.006;17.180;2023-02-22T00:54:21;17.00;;;12.50;;
47912;SDS011;33676;51.006;17.180;2023-02-22T00:56:50;18.20;;;12.30;;
47912;SDS011;33676;51.006;17.180;2023-02-22T00:59:19;17.80;;;11.40;;
47912;SDS011;33676;51.006;17.180;2023-02-22T01:01:47;21.20;;;11.60;;
47912;SDS011;33676;51.006;17.180;2023-02-22T01:04:16;15.20;;;11.10;;
47912;SDS011;33676;51.006;17.180;2023-02-22T01:06:45;14.60;;;8.40;;
47912;SDS011;33676;51.006;17.180;2023-02-22T01:09:14;16.10;;;8.90;;
47912;SDS011;33676;51.006;17.180;2023-02-22T01:11:42;14.80;;;8.10;;
47912;SDS011;33676;51.006;17.180;2023-02-22T01:14:12;12.20;;;7.80;;
47912;SDS011;33676;51.006;17.180;2023-02-22T01:16:40;11.90;;;8.80;;
47912;SDS011;33676;51.006;17.180;2023-02-22T01:19:09;12.80;;;7.90;;
47912;SDS011;33676;51.006;17.180;2023-02-22T01:21:39;16.70;;;8.50;;
47912;SDS011;33676;51.006;17.180;2023-02-22T01:24:08;12.60;;;8.70;;
47912;SDS011;33676;51.006;17.180;2023-02-22T01:26:36;14.00;;;8.60;;
47912;SDS011;33676;51.006;17.180;2023-02-22T01:29:05;13.30;;;8.00;;
47912;SDS011;33676;51.006;17.180;2023-02-22T01:31:34;13.70;;;7.90;;
47912;SDS011;33676;51.006;17.180;2023-02-22T01:34:02;13.10;;;9.10;;
47912;SDS011;33676;51.006;17.180;2023-02-22T01:36:31;15.10;;;9.60;;
47912;SDS011;33676;51.006;17.180;2023-02-22T01:38:59;10.60;;;7.60;;
47912;SDS011;33676;51.006;17.180;2023-02-22T01:41:27;13.60;;;8.40;;
47912;SDS011;33676;51.006;17.180;2023-02-22T01:43:56;15.20;;;9.40;;
47912;SDS011;33676;51.006;17.180;2023-02-22T01:46:25;16.50;;;9.60;;
47912;SDS011;33676;51.006;17.180;2023-02-22T01:49:01;16.60;;;9.10;;
47912;SDS011;33676;51.006;17.180;2023-02-22T01:51:36;11.70;;;7.70;;
47912;SDS011;33676;51.006;17.180;2023-02-22T01:56:49;14.50;;;9.00;;
47912;SDS011;33676;51.006;17.180;2023-02-22T01:59:23;14.40;;;10.30;;
47912;SDS011;33676;51.006;17.180;2023-02-22T02:01:51;16.40;;;9.80;;
47912;SDS011;33676;51.006;17.180;2023-02-22T02:04:21;14.20;;;9.70;;
47912;SDS011;33676;51.006;17.180;2023-02-22T02:06:53;19.40;;;10.10;;
47912;SDS011;33676;51.006;17.180;2023-02-22T02:09:43;14.00;;;9.80;;
47912;SDS011;33676;51.006;17.180;2023-02-22T02:12:17;16.50;;;10.40;;
47912;SDS011;33676;51.006;17.180;2023-02-22T02:14:46;14.90;;;9.90;;
47912;SDS011;33676;51.006;17.180;2023-02-22T02:17:18;13.50;;;8.80;;
47912;SDS011;33676;51.006;17.180;2023-02-22T02:28:44;13.20;;;9.00;;
47912;SDS011;33676;51.006;17.180;2023-02-22T02:35:03;20.70;;;10.20;;
47912;SDS011;33676;51.006;17.180;2023-02-22T02:38:05;15.30;;;8.60;;
47912;SDS011;33676;51.006;17.180;2023-02-22T02:41:21;15.70;;;9.50;;
47912;SDS011;33676;51.006;17.180;2023-02-22T02:46:35;16.20;;;10.70;;
47912;SDS011;33676;51.006;17.180;2023-02-22T02:49:10;20.30;;;10.30;;
47912;SDS011;33676;51.006;17.180;2023-02-22T02:51:46;14.90;;;10.30;;
47912;SDS011;33676;51.006;17.180;2023-02-22T02:54:17;15.00;;;9.20;;
47912;SDS011;33676;51.006;17.180;2023-02-22T02:56:47;15.50;;;9.70;;
47912;SDS011;33676;51.006;17.180;2023-02-22T02:59:29;12.50;;;8.70;;
47912;SDS011;33676;51.006;17.180;2023-02-22T03:08:29;14.40;;;9.10;;
47912;SDS011;33676;51.006;17.180;2023-02-22T03:11:09;12.30;;;8.30;;
47912;SDS011;33676;51.006;17.180;2023-02-22T03:13:52;16.00;;;10.20;;
47912;SDS011;33676;51.006;17.180;2023-02-22T03:19:54;10.40;;;7.70;;
47912;SDS011;33676;51.006;17.180;2023-02-22T03:22:32;14.00;;;8.50;;
47912;SDS011;33676;51.006;17.180;2023-02-22T03:25:19;16.80;;;7.70;;
47912;SDS011;33676;51.006;17.180;2023-02-22T03:27:54;15.10;;;9.50;;
47912;SDS011;33676;51.006;17.180;2023-02-22T03:30:53;17.80;;;11.10;;
47912;SDS011;33676;51.006;17.180;2023-02-22T03:33:55;19.90;;;10.30;;
47912;SDS011;33676;51.006;17.180;2023-02-22T03:36:34;18.70;;;9.30;;
47912;SDS011;33676;51.006;17.180;2023-02-22T03:39:10;19.20;;;9.40;;
47912;SDS011;33676;51.006;17.180;2023-02-22T03:41:46;15.70;;;9.80;;
47912;SDS011;33676;51.006;17.180;2023-02-22T03:46:52;12.60;;;9.00;;
47912;SDS011;33676;51.006;17.180;2023-02-22T03:49:30;18.10;;;9.80;;
47912;SDS011;33676;51.006;17.180;2023-02-22T03:52:03;17.30;;;9.30;;
47912;SDS011;33676;51.006;17.180;2023-02-22T03:54:32;13.80;;;8.70;;
47912;SDS011;33676;51.006;17.180;2023-02-22T03:57:06;16.90;;;8.50;;
47912;SDS011;33676;51.006;17.180;2023-02-22T03:59:45;12.50;;;7.50;;
47912;SDS011;33676;51.006;17.180;2023-02-22T04:02:16;13.50;;;6.90;;
47912;SDS011;33676;51.006;17.180;2023-02-22T04:04:46;17.70;;;7.90;;
47912;SDS011;33676;51.006;17.180;2023-02-22T04:07:16;15.00;;;8.50;;
47912;SDS011;33676;51.006;17.180;2023-02-22T04:10:21;18.90;;;8.10;;
47912;SDS011;33676;51.006;17.180;2023-02-22T04:12:51;13.40;;;6.60;;
47912;SDS011;33676;51.006;17.180;2023-02-22T04:15:22;16.40;;;7.50;;
47912;SDS011;33676;51.006;17.180;2023-02-22T04:17:51;12.30;;;7.30;;
47912;SDS011;33676;51.006;17.180;2023-02-22T04:20:20;9.70;;;7.70;;
47912;SDS011;33676;51.006;17.180;2023-02-22T04:22:53;18.60;;;8.50;;
47912;SDS011;33676;51.006;17.180;2023-02-22T04:25:23;14.70;;;8.00;;
47912;SDS011;33676;51.006;17.180;2023-02-22T04:27:52;14.70;;;9.70;;
47912;SDS011;33676;51.006;17.180;2023-02-22T04:30:21;18.90;;;9.70;;
47912;SDS011;33676;51.006;17.180;2023-02-22T04:32:50;17.20;;;8.00;;
47912;SDS011;33676;51.006;17.180;2023-02-22T04:35:18;19.60;;;8.50;;
47912;SDS011;33676;51.006;17.180;2023-02-22T04:37:47;19.70;;;8.60;;
47912;SDS011;33676;51.006;17.180;2023-02-22T04:40:16;16.00;;;7.90;;
47912;SDS011;33676;51.006;17.180;2023-02-22T04:42:44;11.10;;;7.40;;
47912;SDS011;33676;51.006;17.180;2023-02-22T04:45:13;16.20;;;8.20;;
47912;SDS011;33676;51.006;17.180;2023-02-22T04:47:41;14.80;;;8.40;;
47912;SDS011;33676;51.006;17.180;2023-02-22T04:50:10;16.20;;;7.80;;
47912;SDS011;33676;51.006;17.180;2023-02-22T04:52:39;17.90;;;9.10;;
47912;SDS011;33676;51.006;17.180;2023-02-22T04:55:08;11.20;;;8.10;;
47912;SDS011;33676;51.006;17.180;2023-02-22T04:57:37;16.00;;;8.70;;
47912;SDS011;33676;51.006;17.180;2023-02-22T05:00:07;19.90;;;8.90;;
47912;SDS011;33676;51.006;17.180;2023-02-22T05:02:38;20.10;;;9.90;;
47912;SDS011;33676;51.006;17.180;2023-02-22T05:05:07;18.10;;;9.80;;
47912;SDS011;33676;51.006;17.180;2023-02-22T05:07:35;22.60;;;11.00;;
47912;SDS011;33676;51.006;17.180;2023-02-22T05:10:04;20.70;;;10.90;;
47912;SDS011;33676;51.006;17.180;2023-02-22T05:12:34;13.70;;;9.00;;
47912;SDS011;33676;51.006;17.180;2023-02-22T05:15:04;18.40;;;9.30;;
47912;SDS011;33676;51.006;17.180;2023-02-22T05:17:34;16.50;;;8.20;;
47912;SDS011;33676;51.006;17.180;2023-02-22T05:20:03;15.50;;;8.30;;
47912;SDS011;33676;51.006;17.180;2023-02-22T05:22:33;18.20;;;8.80;;
47912;SDS011;33676;51.006;17.180;2023-02-22T05:25:01;17.20;;;9.00;;
47912;SDS011;33676;51.006;17.180;2023-02-22T05:27:30;19.70;;;9.70;;
47912;SDS011;33676;51.006;17.180;2023-02-22T05:29:58;11.90;;;8.30;;
47912;SDS011;33676;51.006;17.180;2023-02-22T05:32:27;11.60;;;8.10;;
47912;SDS011;33676;51.006;17.180;2023-02-22T05:34:55;13.30;;;7.30;;
47912;SDS011;33676;51.006;17.180;2023-02-22T05:37:23;16.10;;;8.20;;
47912;SDS011;33676;51.006;17.180;2023-02-22T05:39:52;14.80;;;7.00;;
47912;SDS011;33676;51.006;17.180;2023-02-22T05:42:20;11.50;;;7.20;;
47912;SDS011;33676;51.006;17.180;2023-02-22T05:44:50;14.80;;;7.00;;
47912;SDS011;33676;51.006;17.180;2023-02-22T05:47:18;12.40;;;7.20;;
47912;SDS011;33676;51.006;17.180;2023-02-22T05:49:47;16.40;;;8.30;;
47912;SDS011;33676;51.006;17.180;2023-02-22T05:52:15;15.00;;;8.20;;
47912;SDS011;33676;51.006;17.180;2023-02-22T05:54:43;12.90;;;7.40;;
47912;SDS011;33676;51.006;17.180;2023-02-22T05:57:12;14.80;;;7.60;;
47912;SDS011;33676;51.006;17.180;2023-02-22T05:59:40;15.70;;;7.80;;
47912;SDS011;33676;51.006;17.180;2023-02-22T06:02:10;12.60;;;7.80;;
47912;SDS011;33676;51.006;17.180;2023-02-22T06:04:38;13.70;;;7.90;;
47912;SDS011;33676;51.006;17.180;2023-02-22T06:07:07;13.70;;;7.60;;
47912;SDS011;33676;51.006;17.180;2023-02-22T06:09:35;17.10;;;8.50;;
47912;SDS011;33676;51.006;17.180;2023-02-22T06:12:04;14.80;;;8.60;;
47912;SDS011;33676;51.006;17.180;2023-02-22T06:14:33;14.80;;;8.40;;
47912;SDS011;33676;51.006;17.180;2023-02-22T06:17:02;12.30;;;8.70;;
47912;SDS011;33676;51.006;17.180;2023-02-22T06:19:32;14.80;;;7.60;;
47912;SDS011;33676;51.006;17.180;2023-02-22T06:22:00;18.10;;;7.90;;
47912;SDS011;33676;51.006;17.180;2023-02-22T06:24:30;12.60;;;6.80;;
47912;SDS011;33676;51.006;17.180;2023-02-22T06:27:00;16.10;;;8.20;;
47912;SDS011;33676;51.006;17.180;2023-02-22T06:29:29;24.20;;;7.70;;
47912;SDS011;33676;51.006;17.180;2023-02-22T06:31:57;14.10;;;8.40;;
47912;SDS011;33676;51.006;17.180;2023-02-22T06:34:26;14.40;;;7.90;;
47912;SDS011;33676;51.006;17.180;2023-02-22T06:36:54;17.60;;;7.50;;
47912;SDS011;33676;51.006;17.180;2023-02-22T06:39:22;12.80;;;8.70;;
47912;SDS011;33676;51.006;17.180;2023-02-22T06:41:52;14.10;;;10.20;;
47912;SDS011;33676;51.006;17.180;2023-02-22T06:44:23;36.30;;;19.50;;
47912;SDS011;33676;51.006;17.180;2023-02-22T06:46:51;34.70;;;23.10;;
47912;SDS011;33676;51.006;17.180;2023-02-22T06:49:20;31.80;;;17.20;;
47912;SDS011;33676;51.006;17.180;2023-02-22T06:51:48;18.70;;;11.80;;
47912;SDS011;33676;51.006;17.180;2023-02-22T06:54:17;13.20;;;10.00;;
47912;SDS011;33676;51.006;17.180;2023-02-22T06:56:45;19.90;;;10.40;;
47912;SDS011;33676;51.006;17.180;2023-02-22T06:59:14;20.60;;;12.40;;
47912;SDS011;33676;51.006;17.180;2023-02-22T07:01:43;20.40;;;10.40;;
47912;SDS011;33676;51.006;17.180;2023-02-22T07:04:11;22.50;;;11.90;;
47912;SDS011;33676;51.006;17.180;2023-02-22T07:06:47;27.30;;;15.50;;
47912;SDS011;33676;51.006;17.180;2023-02-22T07:09:17;29.00;;;16.20;;
47912;SDS011;33676;51.006;17.180;2023-02-22T07:11:46;64.20;;;41.20;;
47912;SDS011;33676;51.006;17.180;2023-02-22T07:14:16;89.30;;;57.00;;
47912;SDS011;33676;51.006;17.180;2023-02-22T07:16:44;73.90;;;45.10;;
47912;SDS011;33676;51.006;17.180;2023-02-22T07:19:13;55.70;;;37.80;;
47912;SDS011;33676;51.006;17.180;2023-02-22T07:21:41;49.50;;;28.90;;
47912;SDS011;33676;51.006;17.180;2023-02-22T07:24:10;43.40;;;24.90;;
47912;SDS011;33676;51.006;17.180;2023-02-22T07:26:40;32.30;;;20.50;;
47912;SDS011;33676;51.006;17.180;2023-02-22T07:29:10;32.90;;;18.80;;
47912;SDS011;33676;51.006;17.180;2023-02-22T07:31:39;23.50;;;15.60;;
47912;SDS011;33676;51.006;17.180;2023-02-22T07:34:07;22.90;;;14.70;;
47912;SDS011;33676;51.006;17.180;2023-02-22T07:36:35;37.30;;;18.20;;
47912;SDS011;33676;51.006;17.180;2023-02-22T07:39:04;28.50;;;20.30;;
47912;SDS011;33676;51.006;17.180;2023-02-22T07:41:35;33.00;;;23.90;;
47912;SDS011;33676;51.006;17.180;2023-02-22T07:44:04;18.80;;;12.60;;
47912;SDS011;33676;51.006;17.180;2023-02-22T07:46:32;17.60;;;12.00;;
47912;SDS011;33676;51.006;17.180;2023-02-22T07:49:01;24.70;;;11.40;;
47912;SDS011;33676;51.006;17.180;2023-02-22T07:51:29;32.40;;;11.70;;
47912;SDS011;33676;51.006;17.180;2023-02-22T07:53:57;23.30;;;11.10;;
47912;SDS011;33676;51.006;17.180;2023-02-22T07:56:26;15.80;;;10.40;;
47912;SDS011;33676;51.006;17.180;2023-02-22T07:58:54;20.90;;;12.20;;
47912;SDS011;33676;51.006;17.180;2023-02-22T08:01:23;22.90;;;13.50;;
47912;SDS011;33676;51.006;17.180;2023-02-22T08:03:51;22.20;;;12.10;;
47912;SDS011;33676;51.006;17.180;2023-02-22T08:06:21;30.40;;;19.10;;
47912;SDS011;33676;51.006;17.180;2023-02-22T08:08:52;18.30;;;13.50;;
47912;SDS011;33676;51.006;17.180;2023-02-22T08:11:21;29.30;;;16.90;;
47912;SDS011;33676;51.006;17.180;2023-02-22T08:13:49;16.00;;;10.80;;
47912;SDS011;33676;51.006;17.180;2023-02-22T08:16:17;20.90;;;10.80;;
47912;SDS011;33676;51.006;17.180;2023-02-22T08:18:46;18.20;;;9.70;;
47912;SDS011;33676;51.006;17.180;2023-02-22T08:21:15;18.60;;;8.50;;
47912;SDS011;33676;51.006;17.180;2023-02-22T08:23:44;18.70;;;9.80;;
47912;SDS011;33676;51.006;17.180;2023-02-22T08:26:17;28.00;;;10.00;;
47912;SDS011;33676;51.006;17.180;2023-02-22T08:28:48;22.90;;;10.50;;
47912;SDS011;33676;51.006;17.180;2023-02-22T08:31:16;20.50;;;10.20;;
47912;SDS011;33676;51.006;17.180;2023-02-22T08:33:48;17.80;;;10.30;;
47912;SDS011;33676;51.006;17.180;2023-02-22T08:36:16;19.90;;;10.60;;
47912;SDS011;33676;51.006;17.180;2023-02-22T08:38:45;32.90;;;18.90;;
47912;SDS011;33676;51.006;17.180;2023-02-22T08:41:14;18.50;;;12.10;;
47912;SDS011;33676;51.006;17.180;2023-02-22T08:43:42;16.00;;;9.00;;
47912;SDS011;33676;51.006;17.180;2023-02-22T08:46:11;17.00;;;9.50;;
47912;SDS011;33676;51.006;17.180;2023-02-22T08:48:48;21.70;;;11.50;;
47912;SDS011;33676;51.006;17.180;2023-02-22T08:51:18;19.30;;;9.50;;
47912;SDS011;33676;51.006;17.180;2023-02-22T08:53:47;19.50;;;10.80;;
47912;SDS011;33676;51.006;17.180;2023-02-22T08:56:16;15.20;;;8.60;;
47912;SDS011;33676;51.006;17.180;2023-02-22T08:58:44;21.70;;;9.40;;
47912;SDS011;33676;51.006;17.180;2023-02-22T09:01:13;17.30;;;8.90;;
47912;SDS011;33676;51.006;17.180;2023-02-22T09:03:49;16.70;;;7.90;;
47912;SDS011;33676;51.006;17.180;2023-02-22T09:06:19;23.10;;;9.90;;
47912;SDS011;33676;51.006;17.180;2023-02-22T09:08:47;21.00;;;10.80;;
47912;SDS011;33676;51.006;17.180;2023-02-22T09:11:15;18.20;;;7.70;;
47912;SDS011;33676;51.006;17.180;2023-02-22T09:13:46;18.90;;;7.80;;
47912;SDS011;33676;51.006;17.180;2023-02-22T09:16:14;16.70;;;7.00;;
47912;SDS011;33676;51.006;17.180;2023-02-22T09:18:43;22.40;;;8.40;;
47912;SDS011;33676;51.006;17.180;2023-02-22T09:21:11;18.80;;;8.60;;
47912;SDS011;33676;51.006;17.180;2023-02-22T09:23:40;22.30;;;8.20;;
47912;SDS011;33676;51.006;17.180;2023-02-22T09:26:08;16.30;;;7.70;;
47912;SDS011;33676;51.006;17.180;2023-02-22T09:28:37;18.00;;;6.80;;
47912;SDS011;33676;51.006;17.180;2023-02-22T09:31:06;24.30;;;7.80;;
47912;SDS011;33676;51.006;17.180;2023-02-22T09:33:35;23.90;;;8.70;;
47912;SDS011;33676;51.006;17.180;2023-02-22T09:36:04;11.90;;;7.90;;
47912;SDS011;33676;51.006;17.180;2023-02-22T09:38:33;23.30;;;8.10;;
47912;SDS011;33676;51.006;17.180;2023-02-22T09:41:19;17.80;;;8.10;;
47912;SDS011;33676;51.006;17.180;2023-02-22T09:44:28;14.20;;;7.20;;
47912;SDS011;33676;51.006;17.180;2023-02-22T09:47:03;24.50;;;10.00;;
47912;SDS011;33676;51.006;17.180;2023-02-22T09:49:39;14.90;;;8.80;;
47912;SDS011;33676;51.006;17.180;2023-02-22T09:54:48;20.70;;;9.00;;
47912;SDS011;33676;51.006;17.180;2023-02-22T09:57:25;17.50;;;8.40;;
47912;SDS011;33676;51.006;17.180;2023-02-22T10:00:03;17.10;;;8.10;;
47912;SDS011;33676;51.006;17.180;2023-02-22T10:05:33;11.80;;;7.10;;
47912;SDS011;33676;51.006;17.180;2023-02-22T10:08:15;20.60;;;9.20;;
47912;SDS011;33676;51.006;17.180;2023-02-22T10:10:47;18.30;;;7.40;;
47912;SDS011;33676;51.006;17.180;2023-02-22T10:19:37;15.40;;;7.70;;
47912;SDS011;33676;51.006;17.180;2023-02-22T10:25:13;16.50;;;8.00;;
47912;SDS011;33676;51.006;17.180;2023-02-22T10:30:33;13.60;;;6.40;;
47912;SDS011;33676;51.006;17.180;2023-02-22T10:33:11;13.90;;;6.40;;
47912;SDS011;33676;51.006;17.180;2023-02-22T10:35:44;13.40;;;6.00;;
47912;SDS011;33676;51.006;17.180;2023-02-22T10:38:28;17.40;;;7.00;;
47912;SDS011;33676;51.006;17.180;2023-02-22T10:43:36;9.80;;;5.90;;
47912;SDS011;33676;51.006;17.180;2023-02-22T10:46:16;17.70;;;7.20;;
47912;SDS011;33676;51.006;17.180;2023-02-22T10:48:50;13.30;;;6.10;;
47912;SDS011;33676;51.006;17.180;2023-02-22T10:51:22;14.30;;;5.70;;
47912;SDS011;33676;51.006;17.180;2023-02-22T10:54:18;18.90;;;5.60;;
47912;SDS011;33676;51.006;17.180;2023-02-22T10:56:54;11.20;;;5.00;;
47912;SDS011;33676;51.006;17.180;2023-02-22T10:59:32;16.60;;;5.70;;
47912;SDS011;33676;51.006;17.180;2023-02-22T11:04:51;10.90;;;4.60;;
47912;SDS011;33676;51.006;17.180;2023-02-22T11:07:31;11.70;;;5.70;;
47912;SDS011;33676;51.006;17.180;2023-02-22T11:10:05;16.80;;;7.90;;
47912;SDS011;33676;51.006;17.180;2023-02-22T11:12:40;10.90;;;5.70;;
47912;SDS011;33676;51.006;17.180;2023-02-22T11:17:46;15.20;;;5.70;;
47912;SDS011;33676;51.006;17.180;2023-02-22T11:20:23;19.60;;;5.90;;
47912;SDS011;33676;51.006;17.180;2023-02-22T11:22:54;17.30;;;6.40;;
47912;SDS011;33676;51.006;17.180;2023-02-22T11:25:37;12.40;;;6.60;;
47912;SDS011;33676;51.006;17.180;2023-02-22T11:31:12;8.70;;;5.10;;
47912;SDS011;33676;51.006;17.180;2023-02-22T11:33:54;10.90;;;6.70;;
47912;SDS011;33676;51.006;17.180;2023-02-22T11:36:38;12.50;;;5.50;;
47912;SDS011;33676;51.006;17.180;2023-02-22T11:39:27;13.00;;;5.50;;
47912;SDS011;33676;51.006;17.180;2023-02-22T11:42:25;15.10;;;6.50;;
47912;SDS011;33676;51.006;17.180;2023-02-22T11:45:15;12.40;;;5.70;;
47912;SDS011;33676;51.006;17.180;2023-02-22T11:47:51;16.60;;;5.30;;
47912;SDS011;33676;51.006;17.180;2023-02-22T11:50:41;12.80;;;5.60;;
47912;SDS011;33676;51.006;17.180;2023-02-22T11:56:15;10.90;;;4.70;;
47912;SDS011;33676;51.006;17.180;2023-02-22T12:05:29;13.20;;;5.50;;
47912;SDS011;33676;51.006;17.180;2023-02-22T12:08:34;16.40;;;6.50;;
47912;SDS011;33676;51.006;17.180;2023-02-22T12:11:19;11.10;;;4.80;;
47912;SDS011;33676;51.006;17.180;2023-02-22T12:14:16;15.00;;;6.00;;
47912;SDS011;33676;51.006;17.180;2023-02-22T12:17:15;11.90;;;4.90;;
47912;SDS011;33676;51.006;17.180;2023-02-22T12:20:19;8.90;;;4.20;;
47912;SDS011;33676;51.006;17.180;2023-02-22T12:23:12;14.00;;;5.80;;
47912;SDS011;33676;51.006;17.180;2023-02-22T12:26:02;9.70;;;5.00;;
47912;SDS011;33676;51.006;17.180;2023-02-22T12:28:59;14.30;;;5.10;;
47912;SDS011;33676;51.006;17.180;2023-02-22T12:31:37;9.90;;;5.50;;
47912;SDS011;33676;51.006;17.180;2023-02-22T12:37:12;10.00;;;4.60;;
47912;SDS011;33676;51.006;17.180;2023-02-22T12:39:54;14.10;;;4.40;;
47912;SDS011;33676;51.006;17.180;2023-02-22T12:42:33;14.90;;;5.90;;
47912;SDS011;33676;51.006;17.180;2023-02-22T12:55:20;10.20;;;4.50;;
47912;SDS011;33676;51.006;17.180;2023-02-22T13:03:38;12.20;;;4.60;;
47912;SDS011;33676;51.006;17.180;2023-02-22T13:12:08;16.60;;;6.30;;
47912;SDS011;33676;51.006;17.180;2023-02-22T13:17:54;14.20;;;5.00;;
47912;SDS011;33676;51.006;17.180;2023-02-22T13:23:52;9.20;;;4.30;;
47912;SDS011;33676;51.006;17.180;2023-02-22T13:29:26;10.40;;;4.90;;
47912;SDS011;33676;51.006;17.180;2023-02-22T13:32:08;10.80;;;4.40;;
47912;SDS011;33676;51.006;17.180;2023-02-22T13:38:18;10.10;;;4.20;;
47912;SDS011;33676;51.006;17.180;2023-02-22T13:53:23;8.60;;;4.40;;
47912;SDS011;33676;51.006;17.180;2023-02-22T13:55:56;11.30;;;4.70;;
47912;SDS011;33676;51.006;17.180;2023-02-22T13:58:27;7.80;;;4.70;;
47912;SDS011;33676;51.006;17.180;2023-02-22T14:00:57;8.00;;;4.50;;
47912;SDS011;33676;51.006;17.180;2023-02-22T14:06:04;10.80;;;4.80;;
47912;SDS011;33676;51.006;17.180;2023-02-22T14:08:39;11.70;;;5.50;;
47912;SDS011;33676;51.006;17.180;2023-02-22T14:16:29;9.50;;;4.80;;
47912;SDS011;33676;51.006;17.180;2023-02-22T14:19:18;13.10;;;7.40;;
47912;SDS011;33676;51.006;17.180;2023-02-22T14:22:02;11.00;;;5.10;;
47912;SDS011;33676;51.006;17.180;2023-02-22T14:24:44;9.10;;;4.20;;
47912;SDS011;33676;51.006;17.180;2023-02-22T14:27:15;11.20;;;4.70;;
47912;SDS011;33676;51.006;17.180;2023-02-22T14:29:57;11.70;;;4.80;;
47912;SDS011;33676;51.006;17.180;2023-02-22T14:32:32;13.60;;;5.20;;
47912;SDS011;33676;51.006;17.180;2023-02-22T14:35:11;6.00;;;3.50;;
47912;SDS011;33676;51.006;17.180;2023-02-22T14:37:57;9.40;;;4.20;;
47912;SDS011;33676;51.006;17.180;2023-02-22T14:40:32;13.10;;;5.20;;
47912;SDS011;33676;51.006;17.180;2023-02-22T14:43:17;10.40;;;4.80;;
47912;SDS011;33676;51.006;17.180;2023-02-22T14:45:52;11.70;;;4.30;;
47912;SDS011;33676;51.006;17.180;2023-02-22T14:48:39;7.30;;;4.00;;
47912;SDS011;33676;51.006;17.180;2023-02-22T14:51:18;14.80;;;5.50;;
47912;SDS011;33676;51.006;17.180;2023-02-22T14:56:52;9.40;;;4.50;;
47912;SDS011;33676;51.006;17.180;2023-02-22T15:02:25;5.80;;;3.50;;
47912;SDS011;33676;51.006;17.180;2023-02-22T15:04:54;8.90;;;4.60;;
47912;SDS011;33676;51.006;17.180;2023-02-22T15:07:29;9.10;;;4.10;;
47912;SDS011;33676;51.006;17.180;2023-02-22T15:10:16;10.30;;;4.50;;
47912;SDS011;33676;51.006;17.180;2023-02-22T15:12:59;9.10;;;4.60;;
47912;SDS011;33676;51.006;17.180;2023-02-22T15:15:43;8.40;;;4.70;;
47912;SDS011;33676;51.006;17.180;2023-02-22T15:20:55;8.50;;;4.00;;
47912;SDS011;33676;51.006;17.180;2023-02-22T15:23:28;8.10;;;4.20;;
47912;SDS011;33676;51.006;17.180;2023-02-22T15:26:06;7.40;;;3.70;;
47912;SDS011;33676;51.006;17.180;2023-02-22T15:28:43;8.80;;;4.60;;
47912;SDS011;33676;51.006;17.180;2023-02-22T15:31:15;9.20;;;4.90;;
47912;SDS011;33676;51.006;17.180;2023-02-22T15:33:52;8.60;;;4.30;;
47912;SDS011;33676;51.006;17.180;2023-02-22T15:36:26;10.40;;;4.50;;
47912;SDS011;33676;51.006;17.180;2023-02-22T15:38:58;9.40;;;4.40;;
47912;SDS011;33676;51.006;17.180;2023-02-22T15:41:29;8.10;;;5.10;;
47912;SDS011;33676;51.006;17.180;2023-02-22T15:44:05;7.90;;;4.60;;
47912;SDS011;33676;51.006;17.180;2023-02-22T15:46:51;8.90;;;4.30;;
47912;SDS011;33676;51.006;17.180;2023-02-22T15:49:22;8.90;;;4.10;;
47912;SDS011;33676;51.006;17.180;2023-02-22T15:52:20;17.60;;;6.00;;
47912;SDS011;33676;51.006;17.180;2023-02-22T15:54:51;10.60;;;4.20;;
47912;SDS011;33676;51.006;17.180;2023-02-22T15:57:21;9.70;;;4.50;;
47912;SDS011;33676;51.006;17.180;2023-02-22T15:59:54;12.20;;;4.20;;
47912;SDS011;33676;51.006;17.180;2023-02-22T16:02:29;10.20;;;4.20;;
47912;SDS011;33676;51.006;17.180;2023-02-22T16:05:11;7.90;;;3.60;;
47912;SDS011;33676;51.006;17.180;2023-02-22T16:07:46;10.10;;;4.80;;
47912;SDS011;33676;51.006;17.180;2023-02-22T16:13:18;6.00;;;3.70;;
47912;SDS011;33676;51.006;17.180;2023-02-22T16:16:20;15.40;;;4.10;;
47912;SDS011;33676;51.006;17.180;2023-02-22T16:18:52;13.70;;;4.80;;
47912;SDS011;33676;51.006;17.180;2023-02-22T16:21:57;10.70;;;4.50;;
47912;SDS011;33676;51.006;17.180;2023-02-22T16:24:34;12.10;;;5.50;;
47912;SDS011;33676;51.006;17.180;2023-02-22T16:32:07;7.30;;;4.40;;
47912;SDS011;33676;51.006;17.180;2023-02-22T16:34:36;7.90;;;4.40;;
47912;SDS011;33676;51.006;17.180;2023-02-22T16:37:04;9.40;;;5.40;;
47912;SDS011;33676;51.006;17.180;2023-02-22T16:39:50;10.00;;;5.40;;
47912;SDS011;33676;51.006;17.180;2023-02-22T16:42:18;7.60;;;5.40;;
47912;SDS011;33676;51.006;17.180;2023-02-22T16:44:51;14.70;;;6.10;;
47912;SDS011;33676;51.006;17.180;2023-02-22T16:47:20;10.20;;;5.90;;
47912;SDS011;33676;51.006;17.180;2023-02-22T16:49:49;15.10;;;6.10;;
47912;SDS011;33676;51.006;17.180;2023-02-22T16:52:20;7.80;;;5.10;;
47912;SDS011;33676;51.006;17.180;2023-02-22T16:54:48;15.40;;;5.90;;
47912;SDS011;33676;51.006;17.180;2023-02-22T16:57:21;10.90;;;5.00;;
47912;SDS011;33676;51.006;17.180;2023-02-22T16:59:50;13.20;;;6.80;;
47912;SDS011;33676;51.006;17.180;2023-02-22T17:02:20;18.30;;;5.50;;
47912;SDS011;33676;51.006;17.180;2023-02-22T17:04:48;13.40;;;5.10;;
47912;SDS011;33676;51.006;17.180;2023-02-22T17:07:19;11.40;;;4.90;;
47912;SDS011;33676;51.006;17.180;2023-02-22T17:09:51;11.10;;;6.00;;
47912;SDS011;33676;51.006;17.180;2023-02-22T17:12:19;11.40;;;5.40;;
47912;SDS011;33676;51.006;17.180;2023-02-22T17:14:47;13.30;;;5.00;;
47912;SDS011;33676;51.006;17.180;2023-02-22T17:17:16;11.10;;;5.10;;
47912;SDS011;33676;51.006;17.180;2023-02-22T17:19:44;10.70;;;4.90;;
47912;SDS011;33676;51.006;17.180;2023-02-22T17:22:18;9.40;;;4.90;;